Airfield :
LOGIN :

Register | Disclaimer

   EN    FR    IT 

 










Legend :    VFR   Marginal VFR   IFR   Intensive IFR   Very Intensive IFR
Visi :
Ceiling :
>= 8 km
>= 3000ft
5 to 8 km
1000 to 3000 ft
1500m to 5 km
500 to 1000 ft
800 to 1500m
200 to 500 ft
< 800m
< 200 ft
Symbols :   Thunderstorms  Fog  Heavy snow  Heavy precipitations  Wind > 20 kt
SIGMETs :     Misc.  Thunderstorms  Icing  Turbulence  Mountain Waves  Volcanic Ashes






- Airport Elevation : 935 ft


EBFS - Florennes

CURRENT METAR :
  • 260055Z AUTO 27014KT 9999 FEW022/// BKN027/// OVC032/// 01/M01 Q1014 BLU

EXPIRED METARs :
  • 250033Z AUTO 21005KT 2200 -SN BKN003/// 00/00 Q0995 YLO
  • 252355Z AUTO 26010KT 9999 FEW018/// OVC034/// 01/M01 Q1013 BLU
  • 252325Z AUTO 26010KT 9999 FEW018/// BKN036/// BKN042/// 01/M01 Q1013 BLU
  • 252255Z AUTO 26010KT 9999 FEW020/// BKN039/// 01/M01 Q1013 BLU
  • 252155Z AUTO 26010KT 9999 SCT029/// BKN034/// 01/M01 Q1013 BLU

TAF TAF EBFS
Valid from the 25 at 19:00 until the 26 at 07:00 UTC


251541Z 2519/2607 27005KT 8000 FEW010 SCT015
BECMG 2519/2521 6000 SCT010 SCT015
BECMG 2521/2523 3000 BR SCT004
TEMPO 2603/2607 1500 BR SCT002 SCT004
PROB40
TEMPO 2603/2607 0500 FZFG SCT001 SCT003



MET'MAP, your aeronautical weather chart ! - Copyright ORBIFLY December 2007 - Disclaimer

ORBIFLY MET'MAP TEAM :

Programming & Development : Alexandra Zaïnal
Concept & original design : Baudouin d'Aumeries
Assistance for programming : Marc-Olivier Méhu
Technical & hardware support : Manuel Goepfert

Contact : metmap@orbifly.com




SOURCES & CREDITS :

   NOAA